Time;durP1;ratioP1;P1;durP2;ratioP2;P2;SDS_P1;SDS_P2;PMS_P1;PMS_P2;Temp;Humidity;BMP_temperature;BMP_pressure;BME280_temperature;BME280_humidity;BME280_pressure;Samples;Min_cycle;Max_cycle;Signal;HPM_P1;HPM_P2
2023/11/21 00:01:57;;;;;;;21.10;10.63;;;;;;;7.78;100.00;100186.44;4987735;28;20604;-76
2023/11/21 00:04:23;;;;;;;18.50;10.47;;;;;;;7.81;100.00;100190.72;4986944;28;20216;-75
2023/11/21 00:06:51;;;;;;;18.80;10.50;;;;;;;7.79;100.00;100201.41;4989586;28;20635;-76
2023/11/21 00:09:18;;;;;;;21.07;11.53;;;;;;;7.82;100.00;100195.09;4984569;28;20559;-76
2023/11/21 00:11:45;;;;;;;23.40;11.00;;;;;;;7.83;100.00;100202.09;4982362;28;20605;-75
2023/11/21 00:14:11;;;;;;;23.27;10.60;;;;;;;7.81;100.00;100194.22;4986590;28;20806;-76
2023/11/21 00:16:38;;;;;;;21.33;11.20;;;;;;;7.81;100.00;100196.88;4984735;28;20218;-76
2023/11/21 00:19:06;;;;;;;21.13;11.60;;;;;;;7.81;100.00;100204.84;4985856;28;20227;-74
2023/11/21 00:21:32;;;;;;;19.73;10.73;;;;;;;7.82;100.00;100208.34;4977691;28;20231;-76
2023/11/21 00:24:00;;;;;;;17.37;10.70;;;;;;;7.85;100.00;100205.50;4987789;28;20208;-76
2023/11/21 00:26:26;;;;;;;23.47;11.67;;;;;;;7.84;100.00;100215.25;4979023;28;20216;-76
2023/11/21 00:28:53;;;;;;;19.77;12.30;;;;;;;7.83;100.00;100215.34;4982642;28;20215;-75
2023/11/21 00:31:19;;;;;;;23.07;12.43;;;;;;;7.83;100.00;100216.19;4977141;28;20210;-76
2023/11/21 00:33:46;;;;;;;22.17;11.67;;;;;;;7.83;100.00;100215.34;4984735;28;20219;-75
2023/11/21 00:36:12;;;;;;;25.30;12.93;;;;;;;7.83;100.00;100216.19;4984318;28;20200;-76
2023/11/21 00:38:39;;;;;;;18.90;11.40;;;;;;;7.84;100.00;100214.41;4984962;28;20203;-76
2023/11/21 00:41:07;;;;;;;21.60;11.40;;;;;;;7.84;100.00;100211.75;4987673;28;20220;-75
2023/11/21 00:43:34;;;;;;;19.30;11.17;;;;;;;7.84;100.00;100215.25;4985320;28;20694;-75
2023/11/21 00:46:00;;;;;;;27.07;12.37;;;;;;;7.84;100.00;100215.25;4985094;28;20232;-75
2023/11/21 00:48:27;;;;;;;19.57;12.83;;;;;;;7.84;100.00;100207.31;4985318;28;20546;-76
2023/11/21 00:50:53;;;;;;;19.33;10.97;;;;;;;7.85;100.00;100211.66;4983594;28;20200;-76
2023/11/21 00:53:19;;;;;;;23.13;12.53;;;;;;;7.85;100.00;100210.81;4982233;28;20314;-76
2023/11/21 00:55:46;;;;;;;21.50;11.97;;;;;;;7.84;100.00;100209.09;4981950;28;20211;-75
2023/11/21 00:58:14;;;;;;;22.77;11.83;;;;;;;7.84;100.00;100217.06;4983997;28;20210;-75
2023/11/21 01:00:41;;;;;;;16.13;11.20;;;;;;;7.83;100.00;100218.00;4985870;28;20220;-75
2023/11/21 01:03:08;;;;;;;24.20;12.27;;;;;;;7.84;100.00;100217.91;4981693;28;20238;-76
2023/11/21 01:05:34;;;;;;;23.83;12.23;;;;;;;7.88;100.00;100218.59;4984850;28;20203;-74
2023/11/21 01:08:01;;;;;;;25.77;12.33;;;;;;;7.87;100.00;100224.84;4984463;28;20207;-76
2023/11/21 01:10:27;;;;;;;22.50;12.70;;;;;;;7.88;100.00;100237.16;4980308;28;20675;-76
2023/11/21 01:12:54;;;;;;;24.80;11.73;;;;;;;7.89;100.00;100230.88;4978861;28;20612;-77
2023/11/21 01:15:21;;;;;;;23.47;11.70;;;;;;;7.89;100.00;100234.38;4983695;28;20223;-75
2023/11/21 01:17:48;;;;;;;23.53;12.70;;;;;;;7.91;100.00;100229.84;4984920;28;20575;-76
2023/11/21 01:20:15;;;;;;;21.60;12.27;;;;;;;7.91;100.00;100242.25;4985807;28;20223;-76
2023/11/21 01:22:42;;;;;;;25.60;12.30;;;;;;;7.90;100.00;100245.84;4986319;28;20228;-75
2023/11/21 01:25:08;;;;;;;25.33;12.70;;;;;;;7.88;100.00;100248.59;4986065;28;20238;-77
2023/11/21 01:27:35;;;;;;;25.37;12.47;;;;;;;7.91;100.00;100250.19;4984925;28;20761;-76
2023/11/21 01:30:02;;;;;;;26.90;12.83;;;;;;;7.91;100.00;100237.81;4984586;28;20240;-76
2023/11/21 01:32:30;;;;;;;23.03;12.37;;;;;;;7.92;100.00;100244.81;4983313;28;20650;-75
2023/11/21 01:34:56;;;;;;;21.87;12.63;;;;;;;7.92;100.00;100255.41;4983884;28;20474;-75
2023/11/21 01:37:24;;;;;;;25.27;12.90;;;;;;;7.93;100.00;100238.56;4985843;28;20203;-76
2023/11/21 01:39:50;;;;;;;23.10;12.43;;;;;;;7.92;100.00;100244.81;4983526;28;20235;-76
2023/11/21 01:42:18;;;;;;;26.83;12.63;;;;;;;7.93;100.00;100248.31;4983626;28;20231;-76
2023/11/21 01:44:44;;;;;;;27.70;12.13;;;;;;;7.93;100.00;100250.97;4981390;28;20687;-75
2023/11/21 01:47:12;;;;;;;22.30;13.43;;;;;;;7.94;100.00;100258.84;4984586;28;20207;-75
2023/11/21 01:49:40;;;;;;;25.77;11.73;;;;;;;7.95;100.00;100257.91;4983402;28;20725;-74
2023/11/21 01:52:08;;;;;;;27.70;12.47;;;;;;;7.96;100.00;100256.94;4983410;28;20223;-74
2023/11/21 01:54:36;;;;;;;25.80;12.70;;;;;;;7.97;100.00;100252.50;4987421;28;20623;-75
2023/11/21 01:57:06;;;;;;;23.20;12.63;;;;;;;7.98;100.00;100254.22;4984824;28;20211;-74
2023/11/21 01:59:36;;;;;;;24.57;12.97;;;;;;;7.98;100.00;100248.91;4981006;28;20270;-75
2023/11/21 02:02:05;;;;;;;32.17;13.30;;;;;;;7.98;100.00;100257.72;4982143;28;20231;-75
2023/11/21 02:04:32;;;;;;;27.33;13.33;;;;;;;7.97;100.00;100255.16;4980224;28;20217;-75
2023/11/21 02:07:00;;;;;;;27.17;13.53;;;;;;;7.96;100.00;100269.34;4981393;28;20306;-76
2023/11/21 02:09:27;;;;;;;28.30;13.07;;;;;;;7.97;100.00;100265.75;4985717;28;20212;-75
2023/11/21 02:11:54;;;;;;;24.73;13.00;;;;;;;7.98;100.00;100264.81;4980582;28;20243;-76
2023/11/21 02:14:22;;;;;;;26.80;13.70;;;;;;;7.96;100.00;100264.06;4982537;28;20208;-76
2023/11/21 02:16:49;;;;;;;22.00;11.97;;;;;;;7.96;100.00;100270.22;4980023;28;20221;-74
2023/11/21 02:19:20;;;;;;;30.13;15.00;;;;;;;7.95;100.00;100271.16;4986584;28;20572;-76
2023/11/21 02:21:48;;;;;;;26.83;13.93;;;;;;;7.96;100.00;100264.06;4987494;28;20231;-75
2023/11/21 02:24:17;;;;;;;23.47;13.20;;;;;;;7.96;100.00;100266.72;4983985;28;20210;-75
2023/11/21 02:26:43;;;;;;;22.93;13.37;;;;;;;7.96;100.00;100274.66;4983265;28;20212;-75
2023/11/21 02:29:13;;;;;;;25.73;14.57;;;;;;;7.97;100.00;100269.28;4982917;28;20204;-75
2023/11/21 02:31:47;;;;;;;32.47;13.87;;;;;;;7.98;100.00;100278.94;4985387;28;20219;-77
2023/11/21 02:34:14;;;;;;;24.70;13.10;;;;;;;7.98;100.00;100275.44;4985624;28;20628;-76
2023/11/21 02:36:42;;;;;;;24.97;14.80;;;;;;;7.95;100.00;100268.50;4981173;28;20218;-76
2023/11/21 02:39:09;;;;;;;31.00;14.80;;;;;;;7.95;100.00;100278.25;4985443;28;20213;-76
2023/11/21 02:41:37;;;;;;;24.83;14.37;;;;;;;7.95;100.00;100286.22;4982264;28;20612;-76
2023/11/21 02:44:06;;;;;;;30.77;13.73;;;;;;;7.97;100.00;100279.03;4983763;28;20219;-77
2023/11/21 02:46:33;;;;;;;27.27;14.00;;;;;;;7.98;100.00;100275.44;4984419;28;20207;-76
2023/11/21 02:49:00;;;;;;;26.00;13.33;;;;;;;7.96;100.00;100275.50;4984197;28;20208;-76
2023/11/21 02:51:26;;;;;;;30.10;14.60;;;;;;;7.96;100.00;100277.31;4984590;28;20234;-76
2023/11/21 02:53:53;;;;;;;26.60;13.47;;;;;;;7.95;100.00;100273.81;4982405;28;20694;-75
2023/11/21 02:56:19;;;;;;;31.17;13.97;;;;;;;7.96;100.00;100269.34;4986977;28;20214;-77
2023/11/21 02:58:47;;;;;;;26.23;14.57;;;;;;;7.97;100.00;100276.38;4983333;28;20218;-76
2023/11/21 03:01:14;;;;;;;28.10;13.90;;;;;;;7.95;100.00;100280.91;4984000;28;20219;-76
2023/11/21 03:03:41;;;;;;;28.90;13.60;;;;;;;7.96;100.00;100283.47;4989329;28;20690;-76
2023/11/21 03:06:08;;;;;;;27.20;15.00;;;;;;;7.95;100.00;100276.47;4985770;28;21025;-77
2023/11/21 03:08:34;;;;;;;28.90;15.10;;;;;;;7.95;100.00;100286.22;4986233;28;20207;-76
2023/11/21 03:11:02;;;;;;;30.03;14.37;;;;;;;7.95;100.00;100284.41;4989349;28;20583;-76
2023/11/21 03:13:29;;;;;;;29.57;15.33;;;;;;;7.96;100.00;100293.22;4989491;28;20258;-76
2023/11/21 03:15:56;;;;;;;31.63;15.00;;;;;;;7.95;100.00;100297.66;4991170;28;20226;-77
2023/11/21 03:18:23;;;;;;;38.33;15.23;;;;;;;7.96;100.00;100293.22;4985231;28;20212;-77
2023/11/21 03:20:49;;;;;;;30.87;14.70;;;;;;;7.94;100.00;100300.41;4985607;28;20741;-76
2023/11/21 03:23:16;;;;;;;38.67;16.93;;;;;;;7.93;100.00;100299.56;4989673;28;20223;-76
2023/11/21 03:25:43;;;;;;;33.00;15.80;;;;;;;7.92;100.00;100308.44;4989894;28;20211;-76
2023/11/21 03:28:09;;;;;;;30.27;15.33;;;;;;;7.90;100.00;100309.47;4988071;28;20200;-76
2023/11/21 03:30:36;;;;;;;31.87;15.80;;;;;;;7.93;100.00;100311.97;4989467;28;20214;-77
2023/11/21 03:33:05;;;;;;;34.63;16.63;;;;;;;7.92;100.00;100320.84;4989312;28;20231;-77
2023/11/21 03:35:32;;;;;;;35.37;15.83;;;;;;;7.92;100.00;100320.84;4990602;28;20208;-77
2023/11/21 03:37:59;;;;;;;35.77;17.07;;;;;;;7.90;100.00;100320.94;4989347;28;20227;-77
2023/11/21 03:40:25;;;;;;;33.87;16.97;;;;;;;7.93;100.00;100330.53;4984425;28;20250;-77
2023/11/21 03:42:51;;;;;;;36.50;17.13;;;;;;;7.90;100.00;100326.25;4990042;28;20231;-77
2023/11/21 03:45:18;;;;;;;44.53;17.33;;;;;;;7.91;100.00;100327.94;4988364;28;20211;-76
2023/11/21 03:47:45;;;;;;;35.50;16.53;;;;;;;7.90;100.00;100328.03;4989683;28;20215;-77
2023/11/21 03:50:12;;;;;;;29.70;15.27;;;;;;;7.90;100.00;100326.25;4985484;28;20206;-77
2023/11/21 03:52:39;;;;;;;34.00;18.40;;;;;;;7.89;100.00;100323.69;4987703;28;20224;-77
2023/11/21 03:55:06;;;;;;;37.97;16.93;;;;;;;7.89;100.00;100329.84;4985709;28;20258;-77
2023/11/21 03:57:32;;;;;;;33.37;16.80;;;;;;;7.87;100.00;100337.06;4987617;28;20215;-77
2023/11/21 03:59:59;;;;;;;42.60;17.77;;;;;;;7.87;100.00;100336.19;4981005;28;20690;-77
2023/11/21 04:02:26;;;;;;;38.40;16.47;;;;;;;7.87;100.00;100329.09;4986733;28;20234;-77
2023/11/21 04:04:53;;;;;;;42.93;17.53;;;;;;;7.88;100.00;100327.31;4983969;28;20215;-77
2023/11/21 04:07:21;;;;;;;41.17;18.40;;;;;;;7.88;100.00;100332.59;4983070;28;20215;-75
2023/11/21 04:09:48;;;;;;;29.63;16.07;;;;;;;7.87;100.00;100330.91;4986398;28;20306;-78
2023/11/21 04:12:14;;;;;;;33.37;16.27;;;;;;;7.89;100.00;100336.94;4986183;28;20704;-76
2023/11/21 04:15:04;;;;;;;37.20;16.90;;;;;;;7.88;100.00;100337.91;4983071;28;20204;-77
2023/11/21 04:17:31;;;;;;;43.07;16.93;;;;;;;7.86;100.00;100350.38;4977284;28;20218;-77
2023/11/21 04:19:57;;;;;;;45.57;17.37;;;;;;;7.87;100.00;100346.81;4983499;28;20208;-77
2023/11/21 04:22:25;;;;;;;38.33;16.83;;;;;;;7.86;100.00;100347.75;4985724;28;20235;-76
2023/11/21 04:24:51;;;;;;;38.93;17.43;;;;;;;7.87;100.00;100346.81;4981889;28;20581;-76
2023/11/21 04:27:18;;;;;;;31.97;17.27;;;;;;;7.86;100.00;100359.19;4982879;28;20219;-76
2023/11/21 04:29:44;;;;;;;34.13;16.27;;;;;;;7.86;100.00;100363.66;4989446;28;20242;-77
2023/11/21 04:32:12;;;;;;;36.33;16.17;;;;;;;7.85;100.00;100356.63;4984145;28;20271;-77
2023/11/21 04:34:39;;;;;;;35.33;17.30;;;;;;;7.84;100.00;100358.44;4980275;28;20263;-77
2023/11/21 04:37:06;;;;;;;34.17;16.60;;;;;;;7.83;100.00;100361.16;4987814;28;20214;-77
2023/11/21 04:39:34;;;;;;;32.93;16.87;;;;;;;7.86;100.00;100371.59;4986469;28;20282;-77
2023/11/21 04:42:00;;;;;;;33.93;16.63;;;;;;;7.84;100.00;100366.38;4982921;28;20235;-77
2023/11/21 04:44:27;;;;;;;36.27;16.97;;;;;;;7.85;100.00;100375.19;4986453;28;20204;-77
2023/11/21 04:46:53;;;;;;;36.40;17.63;;;;;;;7.85;100.00;100375.19;4986360;28;20216;-75
2023/11/21 04:49:20;;;;;;;41.33;17.03;;;;;;;7.84;100.00;100378.78;4989384;28;20211;-77
2023/11/21 04:51:46;;;;;;;45.00;16.43;;;;;;;7.84;100.00;100384.09;4987644;28;20607;-77
2023/11/21 04:54:12;;;;;;;37.07;17.33;;;;;;;7.85;100.00;100391.09;4986402;28;20203;-76
2023/11/21 04:56:41;;;;;;;39.83;17.63;;;;;;;7.83;100.00;100387.69;4986736;28;20230;-77
2023/11/21 04:59:08;;;;;;;45.37;18.20;;;;;;;7.81;100.00;100390.41;4983153;28;20233;-77
2023/11/21 05:01:36;;;;;;;36.40;17.77;;;;;;;7.81;100.00;100397.50;4983908;28;20338;-77
2023/11/21 05:04:03;;;;;;;36.20;16.90;;;;;;;7.81;100.00;100397.50;4981553;28;20672;-76
2023/11/21 05:06:29;;;;;;;44.90;17.63;;;;;;;7.78;100.00;100395.88;4975872;28;20229;-76
2023/11/21 05:08:55;;;;;;;38.53;17.43;;;;;;;7.77;100.00;100404.78;4984569;28;20203;-77
2023/11/21 05:11:25;;;;;;;42.33;17.97;;;;;;;7.78;100.00;100402.97;4985239;28;20557;-77
2023/11/21 05:13:55;;;;;;;38.80;18.07;;;;;;;7.77;100.00;100406.56;4983319;28;20210;-77
2023/11/21 05:16:22;;;;;;;34.33;17.10;;;;;;;7.77;100.00;100414.53;4986418;28;20242;-77
2023/11/21 05:18:50;;;;;;;41.10;18.53;;;;;;;7.76;100.00;100405.72;4989551;28;20278;-75
2023/11/21 05:21:16;;;;;;;42.27;18.10;;;;;;;7.76;100.00;100410.16;4981567;28;20309;-77
2023/11/21 05:23:43;;;;;;;41.10;17.23;;;;;;;7.77;100.00;100409.22;4987851;28;20199;-75
2023/11/21 05:26:09;;;;;;;37.83;17.73;;;;;;;7.76;100.00;100411.00;4981443;28;20215;-77
2023/11/21 05:28:36;;;;;;;41.03;17.07;;;;;;;7.76;100.00;100415.47;4977558;28;20208;-75
2023/11/21 05:31:04;;;;;;;44.00;18.57;;;;;;;7.74;100.00;100414.69;4976249;28;20204;-78
2023/11/21 05:33:33;;;;;;;37.90;19.47;;;;;;;7.74;100.00;100420.84;4984730;28;20207;-77
2023/11/21 05:35:59;;;;;;;46.33;17.67;;;;;;;7.74;100.00;100417.34;4983289;28;20297;-77
2023/11/21 05:38:25;;;;;;;42.00;18.60;;;;;;;7.76;100.00;100426.91;4986099;28;20203;-77
2023/11/21 05:40:52;;;;;;;47.37;19.20;;;;;;;7.78;100.00;100426.84;4986929;28;20239;-77
2023/11/21 05:43:18;;;;;;;39.40;20.00;;;;;;;7.78;100.00;100437.44;4984951;28;20235;-75
2023/11/21 05:45:45;;;;;;;36.33;17.53;;;;;;;7.79;100.00;100436.50;4979856;28;20596;-77
2023/11/21 05:48:13;;;;;;;40.37;17.97;;;;;;;7.79;100.00;100439.16;4973407;28;20199;-75
2023/11/21 05:50:39;;;;;;;42.13;19.10;;;;;;;7.78;100.00;100443.59;4987966;28;20961;-75
2023/11/21 05:53:06;;;;;;;44.70;18.13;;;;;;;7.79;100.00;100441.81;4979104;28;20223;-77
2023/11/21 05:55:31;;;;;;;40.97;17.47;;;;;;;7.78;100.00;100438.28;4986205;28;20212;-77
2023/11/21 05:57:57;;;;;;;48.67;20.13;;;;;;;7.78;100.00;100448.03;4976389;28;21354;-76
2023/11/21 06:00:25;;;;;;;53.90;20.40;;;;;;;7.77;100.00;100444.53;4987316;28;20429;-77
2023/11/21 06:02:52;;;;;;;44.27;19.00;;;;;;;7.77;100.00;100446.34;4983636;28;20286;-77
2023/11/21 06:05:23;;;;;;;51.87;20.80;;;;;;;7.77;100.00;100457.78;4978775;28;20667;-77
2023/11/21 06:07:49;;;;;;;51.67;20.30;;;;;;;7.76;100.00;100450.78;4968925;28;20693;-77
2023/11/21 06:10:17;;;;;;;43.83;19.30;;;;;;;7.79;100.00;100460.38;4981458;28;20208;-76
2023/11/21 06:12:44;;;;;;;56.23;21.17;;;;;;;7.78;100.00;100453.34;4979333;28;20723;-75
2023/11/21 06:15:13;;;;;;;52.30;20.83;;;;;;;7.79;100.00;100465.66;4977276;28;20471;-76
2023/11/21 06:17:40;;;;;;;47.33;19.67;;;;;;;7.77;100.00;100470.19;4982922;28;20304;-77
2023/11/21 06:20:09;;;;;;;51.37;19.93;;;;;;;7.77;100.00;100478.16;4982595;28;20593;-77
2023/11/21 06:22:38;;;;;;;49.47;20.60;;;;;;;7.76;100.00;100468.47;4983285;28;20647;-77
2023/11/21 06:25:06;;;;;;;51.50;20.10;;;;;;;7.76;100.00;100484.38;4981854;28;20211;-76
2023/11/21 06:27:33;;;;;;;52.50;20.33;;;;;;;7.75;100.00;100480.88;4987332;28;20199;-76
2023/11/21 06:29:59;;;;;;;48.57;19.97;;;;;;;7.76;100.00;100487.88;4977967;28;20240;-77
2023/11/21 06:32:26;;;;;;;46.50;19.27;;;;;;;7.76;100.00;100495.84;4979521;28;20697;-77
2023/11/21 06:34:54;;;;;;;47.33;20.10;;;;;;;7.77;100.00;100494.91;4983936;28;20218;-77
2023/11/21 06:37:21;;;;;;;46.50;19.10;;;;;;;7.76;100.00;100502.94;4983943;28;20208;-78
2023/11/21 06:39:48;;;;;;;41.53;20.03;;;;;;;7.78;100.00;100501.06;4974821;28;20211;-73
2023/11/21 06:42:15;;;;;;;45.33;19.40;;;;;;;7.77;100.00;100504.66;4980207;28;20231;-73
2023/11/21 06:44:42;;;;;;;52.37;19.83;;;;;;;7.78;100.00;100506.38;4976181;28;20244;-72
2023/11/21 06:47:09;;;;;;;47.43;19.23;;;;;;;7.80;100.00;100509.78;4989113;28;20298;-73
2023/11/21 06:49:36;;;;;;;45.70;19.17;;;;;;;7.80;100.00;100518.59;4980747;28;20199;-73
2023/11/21 06:52:03;;;;;;;48.30;19.90;;;;;;;7.81;100.00;100522.13;4983264;28;20231;-73
2023/11/21 06:54:29;;;;;;;42.53;19.10;;;;;;;7.83;100.00;100528.19;4985729;28;20552;-73
2023/11/21 06:56:58;;;;;;;43.07;18.53;;;;;;;7.84;100.00;100535.22;4982124;28;20690;-74
2023/11/21 06:59:24;;;;;;;44.83;18.60;;;;;;;7.84;100.00;100536.06;4984949;28;20472;-73
2023/11/21 07:01:51;;;;;;;44.87;19.93;;;;;;;7.84;100.00;100536.06;4986290;28;20781;-72
2023/11/21 07:04:18;;;;;;;45.23;19.93;;;;;;;7.84;100.00;100538.72;4985328;28;20207;-73
2023/11/21 07:06:44;;;;;;;43.30;18.53;;;;;;;7.85;100.00;100542.22;4984940;28;20264;-72
2023/11/21 07:09:11;;;;;;;39.13;17.80;;;;;;;7.86;100.00;100552.75;4983389;28;20208;-73
2023/11/21 07:11:38;;;;;;;43.10;18.77;;;;;;;7.86;100.00;100552.75;4981623;28;20223;-73
2023/11/21 07:14:07;;;;;;;37.73;18.27;;;;;;;7.85;100.00;100555.47;4985308;28;20207;-72
2023/11/21 07:16:34;;;;;;;45.53;17.87;;;;;;;7.86;100.00;100557.19;4985026;28;20782;-73
2023/11/21 07:19:01;;;;;;;42.20;18.63;;;;;;;7.87;100.00;100564.22;4983820;28;20221;-72
2023/11/21 07:21:27;;;;;;;42.57;18.23;;;;;;;7.88;100.00;100563.28;4985951;28;20326;-73
2023/11/21 07:23:54;;;;;;;41.10;17.83;;;;;;;7.88;100.00;100576.53;4983970;28;20739;-73
2023/11/21 07:26:21;;;;;;;39.73;18.13;;;;;;;7.87;100.00;100578.34;4982262;28;20222;-73
2023/11/21 07:28:47;;;;;;;40.83;16.87;;;;;;;7.86;100.00;100581.06;4985299;28;20219;-73
2023/11/21 07:31:15;;;;;;;25.73;11.87;;;;;;;7.89;100.00;100587.03;4982882;28;20683;-72
2023/11/21 07:33:41;;;;;;;8.97;4.80;;;;;;;7.88;100.00;100592.44;4985357;28;20477;-73
2023/11/21 07:36:10;;;;;;;3.57;2.60;;;;;;;7.80;100.00;100599.94;4985180;28;20215;-72
2023/11/21 07:38:36;;;;;;;3.67;2.70;;;;;;;7.71;100.00;100606.56;4985081;28;20222;-72
2023/11/21 07:41:03;;;;;;;3.80;2.90;;;;;;;7.62;100.00;100609.72;4986123;28;20208;-73
2023/11/21 07:43:34;;;;;;;4.47;2.93;;;;;;;7.55;100.00;100617.09;4979811;28;20236;-73
2023/11/21 07:46:02;;;;;;;4.03;3.23;;;;;;;7.51;100.00;100617.38;4979244;28;20294;-72
2023/11/21 07:48:30;;;;;;;4.07;2.97;;;;;;;7.46;100.00;100616.72;4986209;28;20322;-72
2023/11/21 07:50:57;;;;;;;4.70;3.40;;;;;;;7.43;100.00;100622.19;4989144;28;20211;-72
2023/11/21 07:53:23;;;;;;;5.30;3.40;;;;;;;7.39;100.00;100632.06;4987976;28;20227;-73
2023/11/21 07:55:49;;;;;;;4.97;3.23;;;;;;;7.33;100.00;100632.41;4987795;28;20246;-73
2023/11/21 07:58:16;;;;;;;5.67;3.70;;;;;;;7.31;100.00;100637.78;4983863;28;20598;-73
2023/11/21 08:00:42;;;;;;;5.60;3.63;;;;;;;7.30;100.00;100643.16;4984963;28;20208;-72
2023/11/21 08:03:09;;;;;;;4.43;3.10;;;;;;;7.26;100.00;100646.88;4986351;28;20231;-73
2023/11/21 08:05:37;;;;;;;4.53;2.93;;;;;;;7.25;100.00;100640.72;4989227;28;20215;-73
2023/11/21 08:08:03;;;;;;;3.83;3.00;;;;;;;7.23;100.00;100647.03;4985632;28;20215;-72
2023/11/21 08:10:30;;;;;;;4.97;3.63;;;;;;;7.20;100.00;100652.47;4985703;28;20219;-72
2023/11/21 08:12:56;;;;;;;5.50;3.70;;;;;;;7.20;100.00;100663.06;4987697;28;20502;-73
2023/11/21 08:15:23;;;;;;;6.20;4.40;;;;;;;7.17;100.00;100661.41;4989879;28;20212;-73
2023/11/21 08:17:49;;;;;;;5.37;4.13;;;;;;;7.15;100.00;100671.25;4988702;28;20203;-73
2023/11/21 08:20:17;;;;;;;6.63;4.07;;;;;;;7.14;100.00;100674.84;4987908;28;20208;-73
2023/11/21 08:22:47;;;;;;;6.93;4.23;;;;;;;7.13;100.00;100681.06;4980766;28;20283;-73
2023/11/21 08:25:14;;;;;;;6.97;4.63;;;;;;;7.11;100.00;100687.34;4987330;28;20203;-73
2023/11/21 08:27:40;;;;;;;4.60;3.67;;;;;;;7.09;100.00;100690.09;4979502;28;20207;-73
2023/11/21 08:30:08;;;;;;;6.73;4.70;;;;;;;7.07;100.00;100696.38;4978558;28;20200;-72
2023/11/21 08:32:35;;;;;;;6.33;4.43;;;;;;;7.06;100.00;100700.81;4988547;28;20306;-72
2023/11/21 08:35:01;;;;;;;7.97;4.03;;;;;;;7.08;100.00;100703.41;4986121;28;20327;-74
2023/11/21 08:37:30;;;;;;;8.00;4.53;;;;;;;7.05;100.00;100707.03;4988143;28;20211;-72
2023/11/21 08:39:59;;;;;;;9.30;5.63;;;;;;;7.02;100.00;100712.47;4984439;28;20213;-73
2023/11/21 08:42:29;;;;;;;6.90;5.40;;;;;;;7.00;100.00;100710.84;4987709;28;20711;-72
2023/11/21 08:44:57;;;;;;;7.13;4.90;;;;;;;6.98;100.00;100721.53;4983612;28;20211;-71
2023/11/21 08:47:24;;;;;;;8.77;5.60;;;;;;;7.03;100.00;100716.00;4983726;28;20712;-73
2023/11/21 08:49:52;;;;;;;12.03;7.50;;;;;;;6.98;100.00;100716.22;4983124;28;20215;-73
2023/11/21 08:52:20;;;;;;;12.57;9.07;;;;;;;6.91;100.00;100715.66;4986548;28;20569;-73
2023/11/21 08:54:47;;;;;;;15.73;10.07;;;;;;;6.88;100.00;100721.09;4983861;28;20211;-73
2023/11/21 08:57:15;;;;;;;14.47;9.87;;;;;;;6.78;100.00;100730.41;4985006;28;20203;-72
2023/11/21 08:59:42;;;;;;;13.93;9.47;;;;;;;6.77;100.00;100719.88;4983420;28;20210;-72
2023/11/21 09:02:08;;;;;;;14.53;9.00;;;;;;;6.80;100.00;100728.53;4989456;28;20239;-73
2023/11/21 09:04:34;;;;;;;13.90;9.23;;;;;;;6.79;100.00;100736.56;4978655;28;20208;-73
2023/11/21 09:07:01;;;;;;;12.77;8.60;;;;;;;6.79;100.00;100741.84;4976836;28;20215;-72
2023/11/21 09:09:27;;;;;;;14.70;9.90;;;;;;;6.78;100.00;100750.72;4987026;28;20238;-73
2023/11/21 09:11:54;;;;;;;18.63;10.33;;;;;;;6.78;100.00;100746.28;4978458;28;20619;-71
2023/11/21 09:14:21;;;;;;;12.30;9.00;;;;;;;6.78;100.00;100748.94;4980293;28;20667;-73
2023/11/21 09:16:48;;;;;;;13.43;8.40;;;;;;;6.79;100.00;100755.09;4983102;28;20216;-72
2023/11/21 09:19:15;;;;;;;13.23;8.73;;;;;;;6.77;100.00;100755.16;4986472;28;20690;-73
2023/11/21 09:21:41;;;;;;;12.33;7.53;;;;;;;6.77;100.00;100765.75;4984824;28;20224;-73
2023/11/21 09:24:09;;;;;;;15.17;9.53;;;;;;;6.75;100.00;100762.31;4980156;28;20227;-74
2023/11/21 09:26:35;;;;;;;14.53;9.07;;;;;;;6.73;100.00;100774.75;4983824;28;20208;-72
2023/11/21 09:29:03;;;;;;;17.00;10.63;;;;;;;6.75;100.00;100775.53;4977069;28;20261;-73
2023/11/21 09:31:31;;;;;;;18.27;10.47;;;;;;;6.66;100.00;100786.53;4981502;28;20583;-73
2023/11/21 09:33:57;;;;;;;17.07;10.33;;;;;;;6.65;100.00;100791.88;4981372;28;20237;-73
2023/11/21 09:36:27;;;;;;;15.27;10.73;;;;;;;6.64;100.00;100801.59;4985147;28;20223;-72
2023/11/21 09:38:55;;;;;;;16.27;10.00;;;;;;;6.56;100.00;100804.59;4986421;28;20207;-71
2023/11/21 09:41:26;;;;;;;15.93;9.90;;;;;;;6.55;100.00;100807.31;4988020;28;20291;-72
2023/11/21 09:43:59;;;;;;;14.47;9.33;;;;;;;6.53;100.00;100810.03;4987726;28;20321;-71
2023/11/21 09:46:29;;;;;;;14.70;9.63;;;;;;;6.51;100.00;100822.47;4984749;28;20270;-73
2023/11/21 09:49:01;;;;;;;16.37;10.30;;;;;;;6.54;100.00;100826.75;4985642;28;20215;-73
2023/11/21 09:51:29;;;;;;;14.77;9.27;;;;;;;6.56;100.00;100824.91;4986298;28;20711;-74
2023/11/21 09:54:00;;;;;;;13.50;9.13;;;;;;;6.57;100.00;100831.94;4983958;28;20623;-73
2023/11/21 09:56:29;;;;;;;13.97;8.50;;;;;;;6.60;100.00;100826.50;4985169;28;20199;-72
2023/11/21 09:58:57;;;;;;;14.20;8.77;;;;;;;6.63;100.00;100836.94;4984591;28;20632;-73
2023/11/21 10:01:26;;;;;;;11.33;8.30;;;;;;;6.66;100.00;100833.28;4987503;28;20647;-72
2023/11/21 10:03:52;;;;;;;13.50;8.07;;;;;;;6.68;100.00;100842.91;4981521;28;20630;-73
2023/11/21 10:06:21;;;;;;;12.03;8.00;;;;;;;6.71;100.00;100837.47;4980824;28;20216;-72
2023/11/21 10:08:48;;;;;;;12.20;8.23;;;;;;;6.73;100.00;100843.56;4974496;28;20215;-73
2023/11/21 10:11:16;;;;;;;12.10;7.70;;;;;;;6.76;100.00;100842.56;4978438;28;20212;-71
2023/11/21 10:13:45;;;;;;;9.70;7.03;;;;;;;6.80;100.00;100839.72;4983756;28;20238;-73
2023/11/21 10:16:16;;;;;;;11.87;7.37;;;;;;;6.83;100.00;100855.44;4978266;28;20216;-73
2023/11/21 10:18:44;;;;;;;11.10;7.60;;;;;;;6.86;100.00;100849.16;4985670;28;20207;-73
2023/11/21 10:21:11;;;;;;;10.27;6.63;;;;;;;6.86;100.00;100850.00;4981071;28;20216;-75
2023/11/21 10:23:39;;;;;;;8.73;6.03;;;;;;;6.84;100.00;100851.88;4981882;28;20231;-73
2023/11/21 10:26:16;;;;;;;9.73;5.83;;;;;;;6.84;100.00;100859.81;4982155;28;20211;-74
2023/11/21 10:28:42;;;;;;;9.70;6.60;;;;;;;6.87;100.00;100866.75;4976228;28;20219;-74
2023/11/21 10:31:09;;;;;;;8.23;6.17;;;;;;;6.87;100.00;100867.63;4982917;28;20204;-73
2023/11/21 10:33:35;;;;;;;7.97;6.10;;;;;;;6.88;100.00;100866.69;4987141;28;20222;-74
2023/11/21 10:36:02;;;;;;;9.67;5.83;;;;;;;6.90;100.00;100870.13;4985703;28;20585;-71
2023/11/21 10:38:30;;;;;;;8.57;6.10;;;;;;;6.92;100.00;100878.88;4986171;28;20219;-73
2023/11/21 10:40:58;;;;;;;8.27;5.83;;;;;;;6.94;100.00;100886.75;4982558;28;20215;-72
2023/11/21 10:43:26;;;;;;;8.20;6.23;;;;;;;6.97;100.00;100874.25;4979004;28;20246;-72
2023/11/21 10:45:52;;;;;;;9.60;6.10;;;;;;;6.99;100.00;100887.38;4985137;28;20199;-73
2023/11/21 10:48:18;;;;;;;6.73;5.90;;;;;;;6.98;100.00;100885.69;4977645;28;20211;-73
2023/11/21 10:50:47;;;;;;;7.40;5.50;;;;;;;6.97;100.00;100895.44;4980343;28;20274;-72
2023/11/21 10:53:13;;;;;;;7.20;5.53;;;;;;;6.99;100.00;100897.16;4980263;28;20714;-73
2023/11/21 10:55:40;;;;;;;7.63;5.30;;;;;;;6.98;100.00;100901.59;4982993;28;20209;-71
2023/11/21 10:58:10;;;;;;;8.17;5.33;;;;;;;7.00;99.52;100905.00;4980742;28;20196;-73
2023/11/21 11:00:39;;;;;;;6.80;5.17;;;;;;;7.02;99.16;100896.97;4985065;28;20204;-73
2023/11/21 11:03:13;;;;;;;7.63;5.20;;;;;;;7.01;98.76;100906.72;4985820;28;20691;-73
2023/11/21 11:05:41;;;;;;;6.50;5.20;;;;;;;7.01;97.59;100916.44;4984267;28;20211;-73
2023/11/21 11:08:11;;;;;;;8.70;5.60;;;;;;;6.97;99.01;100916.59;4981535;28;20199;-71
2023/11/21 11:10:38;;;;;;;6.63;5.67;;;;;;;7.01;99.59;100929.69;4976733;28;20672;-73
2023/11/21 11:13:07;;;;;;;6.57;5.37;;;;;;;7.03;99.72;100922.53;4985365;28;20220;-73
2023/11/21 11:15:35;;;;;;;6.00;5.03;;;;;;;7.00;99.33;100920.03;4983406;28;20596;-74